sensor_id;sensor_type;location;lat;lon;timestamp;pressure;altitude;pressure_sealevel;temperature;humidity
60489;BME280;46331;49.252;8.904;2023-07-28T00:00:01;98971.28;;;17.70;100.00
60489;BME280;46331;49.252;8.904;2023-07-28T00:00:43;98969.19;;;17.67;100.00
60489;BME280;46331;49.252;8.904;2023-07-28T00:01:24;98967.47;;;17.71;100.00
60489;BME280;46331;49.252;8.904;2023-07-28T00:02:04;98979.78;;;17.72;100.00
60489;BME280;46331;49.252;8.904;2023-07-28T00:02:45;98967.28;;;17.67;100.00
60489;BME280;46331;49.252;8.904;2023-07-28T00:03:25;98975.50;;;17.71;100.00
60489;BME280;46331;49.252;8.904;2023-07-28T00:04:06;98971.44;;;17.74;100.00
60489;BME280;46331;49.252;8.904;2023-07-28T00:04:49;98975.72;;;17.75;100.00
60489;BME280;46331;49.252;8.904;2023-07-28T00:05:30;98972.75;;;17.76;100.00
60489;BME280;46331;49.252;8.904;2023-07-28T00:06:10;98975.13;;;17.78;100.00
60489;BME280;46331;49.252;8.904;2023-07-28T00:06:51;98979.19;;;17.75;100.00
60489;BME280;46331;49.252;8.904;2023-07-28T00:07:32;98973.34;;;17.73;100.00
60489;BME280;46331;49.252;8.904;2023-07-28T00:08:15;98964.19;;;17.74;100.00
60489;BME280;46331;49.252;8.904;2023-07-28T00:08:56;98971.94;;;17.76;100.00
60489;BME280;46331;49.252;8.904;2023-07-28T00:09:36;98973.34;;;17.73;100.00
60489;BME280;46331;49.252;8.904;2023-07-28T00:10:17;98973.03;;;17.75;100.00
60489;BME280;46331;49.252;8.904;2023-07-28T00:10:57;98967.28;;;17.67;100.00
60489;BME280;46331;49.252;8.904;2023-07-28T00:11:38;98969.38;;;17.70;100.00
60489;BME280;46331;49.252;8.904;2023-07-28T00:12:18;98972.53;;;17.73;100.00
60489;BME280;46331;49.252;8.904;2023-07-28T00:12:59;98968.75;;;17.74;100.00
60489;BME280;46331;49.252;8.904;2023-07-28T00:13:40;98968.06;;;17.68;100.00
60489;BME280;46331;49.252;8.904;2023-07-28T00:14:20;98969.50;;;17.65;100.00
60489;BME280;46331;49.252;8.904;2023-07-28T00:15:01;98965.53;;;17.63;100.00
60489;BME280;46331;49.252;8.904;2023-07-28T00:15:41;98967.13;;;17.64;100.00
60489;BME280;46331;49.252;8.904;2023-07-28T00:16:22;98964.44;;;17.64;100.00
60489;BME280;46331;49.252;8.904;2023-07-28T00:17:02;98968.97;;;17.63;100.00
60489;BME280;46331;49.252;8.904;2023-07-28T00:17:43;98971.47;;;17.60;100.00
60489;BME280;46331;49.252;8.904;2023-07-28T00:18:24;98968.50;;;17.61;100.00
60489;BME280;46331;49.252;8.904;2023-07-28T00:19:05;98973.69;;;17.58;100.00
60489;BME280;46331;49.252;8.904;2023-07-28T00:19:45;98970.50;;;17.56;100.00
60489;BME280;46331;49.252;8.904;2023-07-28T00:20:26;98979.13;;;17.52;100.00
60489;BME280;46331;49.252;8.904;2023-07-28T00:21:06;98970.78;;;17.54;100.00
60489;BME280;46331;49.252;8.904;2023-07-28T00:21:48;98965.72;;;17.52;100.00
60489;BME280;46331;49.252;8.904;2023-07-28T00:22:28;98971.59;;;17.55;100.00
60489;BME280;46331;49.252;8.904;2023-07-28T00:23:09;98962.75;;;17.54;100.00
60489;BME280;46331;49.252;8.904;2023-07-28T00:23:50;98973.97;;;17.56;100.00
60489;BME280;46331;49.252;8.904;2023-07-28T00:24:30;98975.25;;;17.59;100.00
60489;BME280;46331;49.252;8.904;2023-07-28T00:25:11;98972.78;;;17.62;100.00
60489;BME280;46331;49.252;8.904;2023-07-28T00:25:51;98971.00;;;17.58;100.00
60489;BME280;46331;49.252;8.904;2023-07-28T00:26:32;98973.69;;;17.58;100.00
60489;BME280;46331;49.252;8.904;2023-07-28T00:27:12;98976.97;;;17.55;100.00
60489;BME280;46331;49.252;8.904;2023-07-28T00:27:55;98968.94;;;17.55;100.00
60489;BME280;46331;49.252;8.904;2023-07-28T00:28:35;98970.00;;;17.54;100.00
60489;BME280;46331;49.252;8.904;2023-07-28T00:29:16;98976.47;;;17.52;100.00
60489;BME280;46331;49.252;8.904;2023-07-28T00:29:56;98961.78;;;17.50;100.00
60489;BME280;46331;49.252;8.904;2023-07-28T00:30:37;98972.00;;;17.48;100.00
60489;BME280;46331;49.252;8.904;2023-07-28T00:31:17;98966.63;;;17.48;100.00
60489;BME280;46331;49.252;8.904;2023-07-28T00:31:58;98975.50;;;17.48;100.00
60489;BME280;46331;49.252;8.904;2023-07-28T00:32:38;98974.97;;;17.46;100.00
60489;BME280;46331;49.252;8.904;2023-07-28T00:33:19;98967.44;;;17.48;100.00
60489;BME280;46331;49.252;8.904;2023-07-28T00:34:01;98975.19;;;17.50;100.00
60489;BME280;46331;49.252;8.904;2023-07-28T00:34:41;98972.91;;;17.43;100.00
60489;BME280;46331;49.252;8.904;2023-07-28T00:35:22;98972.13;;;17.43;100.00
60489;BME280;46331;49.252;8.904;2023-07-28T00:36:03;98976.88;;;17.46;100.00
60489;BME280;46331;49.252;8.904;2023-07-28T00:36:43;98978.25;;;17.43;100.00
60489;BME280;46331;49.252;8.904;2023-07-28T00:37:24;98983.31;;;17.45;100.00
60489;BME280;46331;49.252;8.904;2023-07-28T00:38:04;98973.72;;;17.44;100.00
60489;BME280;46331;49.252;8.904;2023-07-28T00:38:47;98976.28;;;17.49;100.00
60489;BME280;46331;49.252;8.904;2023-07-28T00:39:27;98981.63;;;17.49;100.00
60489;BME280;46331;49.252;8.904;2023-07-28T00:40:08;98975.69;;;17.52;100.00
60489;BME280;46331;49.252;8.904;2023-07-28T00:40:49;98965.44;;;17.54;100.00
60489;BME280;46331;49.252;8.904;2023-07-28T00:41:29;98966.72;;;17.57;100.00
60489;BME280;46331;49.252;8.904;2023-07-28T00:42:10;98962.44;;;17.56;100.00
60489;BME280;46331;49.252;8.904;2023-07-28T00:42:50;98962.97;;;17.58;100.00
60489;BME280;46331;49.252;8.904;2023-07-28T00:43:31;98959.16;;;17.59;100.00
60489;BME280;46331;49.252;8.904;2023-07-28T00:44:11;98966.13;;;17.60;100.00
60489;BME280;46331;49.252;8.904;2023-07-28T00:44:52;98960.94;;;17.63;100.00
60489;BME280;46331;49.252;8.904;2023-07-28T00:45:33;98953.72;;;17.64;100.00
60489;BME280;46331;49.252;8.904;2023-07-28T00:46:15;98951.03;;;17.64;100.00
60489;BME280;46331;49.252;8.904;2023-07-28T00:46:55;98957.16;;;17.64;100.00
60489;BME280;46331;49.252;8.904;2023-07-28T00:47:36;98956.09;;;17.65;100.00
60489;BME280;46331;49.252;8.904;2023-07-28T00:48:17;98954.19;;;17.66;100.00
60489;BME280;46331;49.252;8.904;2023-07-28T00:48:58;98955.78;;;17.67;100.00
60489;BME280;46331;49.252;8.904;2023-07-28T00:49:39;98960.53;;;17.70;100.00
60489;BME280;46331;49.252;8.904;2023-07-28T00:50:21;98960.53;;;17.70;100.00
60489;BME280;46331;49.252;8.904;2023-07-28T00:51:01;98963.22;;;17.70;100.00
60489;BME280;46331;49.252;8.904;2023-07-28T00:51:42;98958.16;;;17.68;100.00
60489;BME280;46331;49.252;8.904;2023-07-28T00:52:23;98963.81;;;17.67;100.00
60489;BME280;46331;49.252;8.904;2023-07-28T00:53:03;98960.53;;;17.70;100.00
60489;BME280;46331;49.252;8.904;2023-07-28T00:53:44;98953.28;;;17.70;100.00
60489;BME280;46331;49.252;8.904;2023-07-28T00:54:25;98957.34;;;17.68;100.00
60489;BME280;46331;49.252;8.904;2023-07-28T00:55:06;98958.94;;;17.69;100.00
60489;BME280;46331;49.252;8.904;2023-07-28T00:55:46;98961.94;;;17.67;100.00
60489;BME280;46331;49.252;8.904;2023-07-28T00:56:28;98957.59;;;17.58;100.00
60489;BME280;46331;49.252;8.904;2023-07-28T00:57:08;98952.91;;;17.63;100.00
60489;BME280;46331;49.252;8.904;2023-07-28T00:57:50;98956.69;;;17.62;100.00
60489;BME280;46331;49.252;8.904;2023-07-28T00:58:30;98951.81;;;17.64;100.00
60489;BME280;46331;49.252;8.904;2023-07-28T00:59:11;98962.53;;;17.64;100.00
60489;BME280;46331;49.252;8.904;2023-07-28T00:59:52;98958.75;;;17.65;100.00
60489;BME280;46331;49.252;8.904;2023-07-28T01:00:33;98954.78;;;17.63;100.00
60489;BME280;46331;49.252;8.904;2023-07-28T01:01:13;98952.91;;;17.63;100.00
60489;BME280;46331;49.252;8.904;2023-07-28T01:01:54;98954.19;;;17.66;100.00
60489;BME280;46331;49.252;8.904;2023-07-28T01:02:35;98947.22;;;17.65;100.00
60489;BME280;46331;49.252;8.904;2023-07-28T01:03:18;98955.78;;;17.67;100.00
60489;BME280;46331;49.252;8.904;2023-07-28T01:03:59;98958.75;;;17.65;100.00
60489;BME280;46331;49.252;8.904;2023-07-28T01:04:40;98959.69;;;17.61;100.00
60489;BME280;46331;49.252;8.904;2023-07-28T01:05:23;98960.75;;;17.60;100.00
60489;BME280;46331;49.252;8.904;2023-07-28T01:06:20;98953.41;;;17.65;100.00
60489;BME280;46331;49.252;8.904;2023-07-28T01:07:14;98950.72;;;17.65;100.00
60489;BME280;46331;49.252;8.904;2023-07-28T01:08:46;98951.03;;;17.64;100.00
60489;BME280;46331;49.252;8.904;2023-07-28T01:09:40;98955.28;;;17.65;100.00
60489;BME280;46331;49.252;8.904;2023-07-28T01:10:30;98955.56;;;17.63;100.00
60489;BME280;46331;49.252;8.904;2023-07-28T01:11:11;98960.75;;;17.60;100.00
60489;BME280;46331;49.252;8.904;2023-07-28T01:11:55;98957.28;;;17.59;100.00
60489;BME280;46331;49.252;8.904;2023-07-28T01:12:37;98956.69;;;17.62;100.00
60489;BME280;46331;49.252;8.904;2023-07-28T01:13:17;98957.78;;;17.61;100.00
60489;BME280;46331;49.252;8.904;2023-07-28T01:13:58;98954.78;;;17.63;100.00
60489;BME280;46331;49.252;8.904;2023-07-28T01:14:39;98960.16;;;17.63;100.00
60489;BME280;46331;49.252;8.904;2023-07-28T01:15:19;98957.47;;;17.63;100.00
60489;BME280;46331;49.252;8.904;2023-07-28T01:16:00;98956.69;;;17.62;100.00
60489;BME280;46331;49.252;8.904;2023-07-28T01:16:41;98960.63;;;17.65;100.00
60489;BME280;46331;49.252;8.904;2023-07-28T01:17:22;98951.81;;;17.64;100.00
60489;BME280;46331;49.252;8.904;2023-07-28T01:18:04;98957.97;;;17.65;100.00
60489;BME280;46331;49.252;8.904;2023-07-28T01:18:45;98958.75;;;17.65;100.00
60489;BME280;46331;49.252;8.904;2023-07-28T01:19:25;98956.88;;;17.66;100.00
60489;BME280;46331;49.252;8.904;2023-07-28T01:20:06;98955.78;;;17.67;100.00
60489;BME280;46331;49.252;8.904;2023-07-28T01:20:47;98957.84;;;17.70;100.00
60489;BME280;46331;49.252;8.904;2023-07-28T01:21:34;98952.19;;;17.72;100.00
60489;BME280;46331;49.252;8.904;2023-07-28T01:22:46;98955.66;;;17.72;100.00
60489;BME280;46331;49.252;8.904;2023-07-28T01:23:44;98956.13;;;17.74;100.00
60489;BME280;46331;49.252;8.904;2023-07-28T01:24:45;98951.88;;;17.73;100.00
60489;BME280;46331;49.252;8.904;2023-07-28T01:25:57;98957.44;;;17.77;100.00
60489;BME280;46331;49.252;8.904;2023-07-28T01:26:41;98955.06;;;17.75;100.00
60489;BME280;46331;49.252;8.904;2023-07-28T01:27:22;98957.72;;;17.75;100.00
60489;BME280;46331;49.252;8.904;2023-07-28T01:28:03;98956.13;;;17.74;100.00
60489;BME280;46331;49.252;8.904;2023-07-28T01:28:44;98961.69;;;17.78;100.00
60489;BME280;46331;49.252;8.904;2023-07-28T01:29:25;98951.75;;;17.78;100.00
60489;BME280;46331;49.252;8.904;2023-07-28T01:30:06;98951.75;;;17.78;100.00
60489;BME280;46331;49.252;8.904;2023-07-28T01:30:47;98959.50;;;17.80;100.00
60489;BME280;46331;49.252;8.904;2023-07-28T01:31:28;98950.38;;;17.81;100.00
60489;BME280;46331;49.252;8.904;2023-07-28T01:32:10;98955.53;;;17.77;100.00
60489;BME280;46331;49.252;8.904;2023-07-28T01:32:54;98951.75;;;17.78;100.00
60489;BME280;46331;49.252;8.904;2023-07-28T01:33:35;98961.41;;;17.79;100.00
60489;BME280;46331;49.252;8.904;2023-07-28T01:34:16;98954.13;;;17.80;100.00
60489;BME280;46331;49.252;8.904;2023-07-28T01:34:56;98950.97;;;17.78;100.00
60489;BME280;46331;49.252;8.904;2023-07-28T01:35:37;98956.66;;;17.76;100.00
60489;BME280;46331;49.252;8.904;2023-07-28T01:36:21;98948.59;;;17.76;100.00
60489;BME280;46331;49.252;8.904;2023-07-28T01:37:01;98955.34;;;17.74;100.00
60489;BME280;46331;49.252;8.904;2023-07-28T01:37:42;98952.06;;;17.77;100.00
60489;BME280;46331;49.252;8.904;2023-07-28T01:38:23;98953.97;;;17.76;100.00
60489;BME280;46331;49.252;8.904;2023-07-28T01:39:03;98950.16;;;17.77;100.00
60489;BME280;46331;49.252;8.904;2023-07-28T01:39:44;98955.06;;;17.75;100.00
60489;BME280;46331;49.252;8.904;2023-07-28T01:40:24;98955.06;;;17.75;100.00
60489;BME280;46331;49.252;8.904;2023-07-28T01:41:04;98957.25;;;17.73;100.00
60489;BME280;46331;49.252;8.904;2023-07-28T01:41:45;98950.91;;;17.69;100.00
60489;BME280;46331;49.252;8.904;2023-07-28T01:42:25;98956.75;;;17.71;100.00
60489;BME280;46331;49.252;8.904;2023-07-28T01:43:06;98959.72;;;17.69;100.00
60489;BME280;46331;49.252;8.904;2023-07-28T01:43:46;98958.63;;;17.70;100.00
60489;BME280;46331;49.252;8.904;2023-07-28T01:44:27;98956.09;;;17.65;100.00
60489;BME280;46331;49.252;8.904;2023-07-28T01:45:08;98963.91;;;17.62;100.00
60489;BME280;46331;49.252;8.904;2023-07-28T01:45:49;98965.53;;;17.63;100.00
60489;BME280;46331;49.252;8.904;2023-07-28T01:46:29;98959.56;;;17.66;100.00
60489;BME280;46331;49.252;8.904;2023-07-28T01:47:10;98955.41;;;17.60;100.00
60489;BME280;46331;49.252;8.904;2023-07-28T01:47:50;98959.16;;;17.59;100.00
60489;BME280;46331;49.252;8.904;2023-07-28T01:48:31;98959.38;;;17.62;100.00
60489;BME280;46331;49.252;8.904;2023-07-28T01:49:11;98959.16;;;17.59;100.00
60489;BME280;46331;49.252;8.904;2023-07-28T01:49:52;98952.72;;;17.60;100.00
60489;BME280;46331;49.252;8.904;2023-07-28T01:50:32;98948.75;;;17.57;100.00
60489;BME280;46331;49.252;8.904;2023-07-28T01:51:13;98961.38;;;17.57;100.00
60489;BME280;46331;49.252;8.904;2023-07-28T01:51:53;98958.50;;;17.53;100.00
60489;BME280;46331;49.252;8.904;2023-07-28T01:52:34;98954.06;;;17.48;100.00
60489;BME280;46331;49.252;8.904;2023-07-28T01:53:14;98960.97;;;17.49;100.00
60489;BME280;46331;49.252;8.904;2023-07-28T01:53:55;98959.72;;;17.47;100.00
60489;BME280;46331;49.252;8.904;2023-07-28T01:54:36;98955.13;;;17.47;100.00
60489;BME280;46331;49.252;8.904;2023-07-28T01:55:16;98959.41;;;17.48;100.00
60489;BME280;46331;49.252;8.904;2023-07-28T01:55:57;98952.63;;;17.51;100.00
60489;BME280;46331;49.252;8.904;2023-07-28T01:56:37;98949.47;;;17.49;100.00
60489;BME280;46331;49.252;8.904;2023-07-28T01:57:18;98946.00;;;17.48;100.00
60489;BME280;46331;49.252;8.904;2023-07-28T01:58:00;98948.19;;;17.46;100.00
60489;BME280;46331;49.252;8.904;2023-07-28T01:58:42;98940.13;;;17.46;100.00
60489;BME280;46331;49.252;8.904;2023-07-28T01:59:22;98946.91;;;17.44;100.00
60489;BME280;46331;49.252;8.904;2023-07-28T02:00:03;98944.84;;;17.41;100.00
60489;BME280;46331;49.252;8.904;2023-07-28T02:00:53;98944.41;;;17.47;100.00
60489;BME280;46331;49.252;8.904;2023-07-28T02:01:35;98953.19;;;17.39;100.00
60489;BME280;46331;49.252;8.904;2023-07-28T02:02:15;98946.09;;;17.43;100.00
60489;BME280;46331;49.252;8.904;2023-07-28T02:02:56;98948.59;;;17.40;100.00
60489;BME280;46331;49.252;8.904;2023-07-28T02:03:38;98946.94;;;17.30;100.00
60489;BME280;46331;49.252;8.904;2023-07-28T02:04:19;98943.84;;;17.37;100.00
60489;BME280;46331;49.252;8.904;2023-07-28T02:04:59;98944.84;;;17.41;100.00
60489;BME280;46331;49.252;8.904;2023-07-28T02:05:40;98942.75;;;17.38;100.00
60489;BME280;46331;49.252;8.904;2023-07-28T02:06:20;98938.19;;;17.38;100.00
60489;BME280;46331;49.252;8.904;2023-07-28T02:07:01;98938.66;;;17.40;100.00
60489;BME280;46331;49.252;8.904;2023-07-28T02:07:42;98933.81;;;17.42;100.00
60489;BME280;46331;49.252;8.904;2023-07-28T02:08:22;98934.13;;;17.41;100.00
60489;BME280;46331;49.252;8.904;2023-07-28T02:09:03;98933.50;;;17.44;100.00
60489;BME280;46331;49.252;8.904;2023-07-28T02:09:43;98933.69;;;17.47;100.00
60489;BME280;46331;49.252;8.904;2023-07-28T02:10:26;98932.59;;;17.48;100.00
60489;BME280;46331;49.252;8.904;2023-07-28T02:11:07;98934.97;;;17.50;100.00
60489;BME280;46331;49.252;8.904;2023-07-28T02:11:48;98932.78;;;17.52;100.00
60489;BME280;46331;49.252;8.904;2023-07-28T02:12:28;98930.22;;;17.47;100.00
60489;BME280;46331;49.252;8.904;2023-07-28T02:13:09;98939.53;;;17.49;100.00
60489;BME280;46331;49.252;8.904;2023-07-28T02:13:50;98946.31;;;17.47;100.00
60489;BME280;46331;49.252;8.904;2023-07-28T02:14:31;98939.53;;;17.49;100.00
60489;BME280;46331;49.252;8.904;2023-07-28T02:15:12;98943.81;;;17.50;100.00
60489;BME280;46331;49.252;8.904;2023-07-28T02:15:53;98949.66;;;17.52;100.00
60489;BME280;46331;49.252;8.904;2023-07-28T02:16:34;98950.47;;;17.53;100.00
60489;BME280;46331;49.252;8.904;2023-07-28T02:17:14;98942.59;;;17.57;100.00
60489;BME280;46331;49.252;8.904;2023-07-28T02:17:55;98950.03;;;17.60;100.00
60489;BME280;46331;49.252;8.904;2023-07-28T02:18:38;98953.19;;;17.62;100.00
60489;BME280;46331;49.252;8.904;2023-07-28T02:19:18;98947.22;;;17.65;100.00
60489;BME280;46331;49.252;8.904;2023-07-28T02:19:59;98951.50;;;17.66;100.00
60489;BME280;46331;49.252;8.904;2023-07-28T02:20:39;98956.88;;;17.66;100.00
60489;BME280;46331;49.252;8.904;2023-07-28T02:21:20;98950.41;;;17.67;100.00
60489;BME280;46331;49.252;8.904;2023-07-28T02:22:00;98946.63;;;17.68;100.00
60489;BME280;46331;49.252;8.904;2023-07-28T02:22:42;98942.84;;;17.69;100.00
60489;BME280;46331;49.252;8.904;2023-07-28T02:23:23;98943.94;;;17.68;100.00
60489;BME280;46331;49.252;8.904;2023-07-28T02:24:03;98947.13;;;17.70;100.00
60489;BME280;46331;49.252;8.904;2023-07-28T02:24:44;98949.81;;;17.70;100.00
60489;BME280;46331;49.252;8.904;2023-07-28T02:25:25;98947.13;;;17.70;100.00
60489;BME280;46331;49.252;8.904;2023-07-28T02:26:05;98947.44;;;17.68;100.00
60489;BME280;46331;49.252;8.904;2023-07-28T02:26:46;98942.56;;;17.70;100.00
60489;BME280;46331;49.252;8.904;2023-07-28T02:27:27;98949.22;;;17.73;100.00
60489;BME280;46331;49.252;8.904;2023-07-28T02:28:10;98944.94;;;17.72;100.00
60489;BME280;46331;49.252;8.904;2023-07-28T02:28:51;98949.22;;;17.73;100.00
60489;BME280;46331;49.252;8.904;2023-07-28T02:29:32;98956.13;;;17.74;100.00
60489;BME280;46331;49.252;8.904;2023-07-28T02:30:14;98958.50;;;17.76;100.00
60489;BME280;46331;49.252;8.904;2023-07-28T02:30:54;98946.69;;;17.77;100.00
60489;BME280;46331;49.252;8.904;2023-07-28T02:31:35;98938.66;;;17.77;100.00
60489;BME280;46331;49.252;8.904;2023-07-28T02:32:15;98951.75;;;17.78;100.00
60489;BME280;46331;49.252;8.904;2023-07-28T02:32:56;98949.56;;;17.80;100.00
60489;BME280;46331;49.252;8.904;2023-07-28T02:33:36;98951.47;;;17.80;100.00
60489;BME280;46331;49.252;8.904;2023-07-28T02:34:17;98950.97;;;17.78;100.00
60489;BME280;46331;49.252;8.904;2023-07-28T02:34:58;98949.38;;;17.77;100.00
60489;BME280;46331;49.252;8.904;2023-07-28T02:35:38;98952.84;;;17.77;100.00
60489;BME280;46331;49.252;8.904;2023-07-28T02:36:19;98949.38;;;17.77;100.00
60489;BME280;46331;49.252;8.904;2023-07-28T02:37:00;98945.91;;;17.76;100.00
60489;BME280;46331;49.252;8.904;2023-07-28T02:37:40;98948.91;;;17.75;100.00
60489;BME280;46331;49.252;8.904;2023-07-28T02:38:21;98950.47;;;17.76;100.00
60489;BME280;46331;49.252;8.904;2023-07-28T02:39:02;98950.78;;;17.74;100.00
60489;BME280;46331;49.252;8.904;2023-07-28T02:39:42;98957.44;;;17.77;100.00
60489;BME280;46331;49.252;8.904;2023-07-28T02:40:23;98950.28;;;17.72;100.00
60489;BME280;46331;49.252;8.904;2023-07-28T02:41:03;98955.66;;;17.72;100.00
60489;BME280;46331;49.252;8.904;2023-07-28T02:41:44;98950.28;;;17.72;100.00
60489;BME280;46331;49.252;8.904;2023-07-28T02:42:25;98953.47;;;17.74;100.00
60489;BME280;46331;49.252;8.904;2023-07-28T02:43:06;98952.97;;;17.72;100.00
60489;BME280;46331;49.252;8.904;2023-07-28T02:43:46;98954.56;;;17.73;100.00
60489;BME280;46331;49.252;8.904;2023-07-28T02:44:27;98952.50;;;17.70;100.00
60489;BME280;46331;49.252;8.904;2023-07-28T02:45:08;98947.13;;;17.70;100.00
60489;BME280;46331;49.252;8.904;2023-07-28T02:45:57;98947.75;;;17.67;100.00
60489;BME280;46331;49.252;8.904;2023-07-28T02:46:38;98955.28;;;17.65;100.00
60489;BME280;46331;49.252;8.904;2023-07-28T02:47:18;98957.47;;;17.63;100.00
60489;BME280;46331;49.252;8.904;2023-07-28T02:47:59;98956.19;;;17.60;100.00
60489;BME280;46331;49.252;8.904;2023-07-28T02:48:39;98955.09;;;17.61;100.00
60489;BME280;46331;49.252;8.904;2023-07-28T02:49:19;98957.78;;;17.61;100.00
60489;BME280;46331;49.252;8.904;2023-07-28T02:50:00;98955.69;;;17.58;100.00
60489;BME280;46331;49.252;8.904;2023-07-28T02:50:45;98955.22;;;17.56;100.00
60489;BME280;46331;49.252;8.904;2023-07-28T02:51:26;98955.81;;;17.53;100.00
60489;BME280;46331;49.252;8.904;2023-07-28T02:52:07;98962.97;;;17.58;100.00
60489;BME280;46331;49.252;8.904;2023-07-28T02:52:47;98964.66;;;17.54;100.00
60489;BME280;46331;49.252;8.904;2023-07-28T02:53:28;98960.38;;;17.52;100.00
60489;BME280;46331;49.252;8.904;2023-07-28T02:54:08;98963.06;;;17.52;100.00
60489;BME280;46331;49.252;8.904;2023-07-28T02:54:49;98975.69;;;17.52;100.00
60489;BME280;46331;49.252;8.904;2023-07-28T02:55:30;98964.16;;;17.51;100.00
60489;BME280;46331;49.252;8.904;2023-07-28T02:56:11;98971.69;;;17.49;100.00
60489;BME280;46331;49.252;8.904;2023-07-28T02:56:51;98977.88;;;17.50;100.00
60489;BME280;46331;49.252;8.904;2023-07-28T02:57:32;98970.72;;;17.45;100.00
60489;BME280;46331;49.252;8.904;2023-07-28T02:58:13;98973.41;;;17.45;100.00
60489;BME280;46331;49.252;8.904;2023-07-28T02:58:53;98966.75;;;17.43;100.00
60489;BME280;46331;49.252;8.904;2023-07-28T02:59:34;98969.63;;;17.46;100.00
60489;BME280;46331;49.252;8.904;2023-07-28T03:00:14;98965.06;;;17.47;100.00
60489;BME280;46331;49.252;8.904;2023-07-28T03:00:55;98973.91;;;17.47;100.00
60489;BME280;46331;49.252;8.904;2023-07-28T03:01:44;98968.53;;;17.47;100.00
60489;BME280;46331;49.252;8.904;2023-07-28T03:02:24;98974.19;;;17.46;100.00
60489;BME280;46331;49.252;8.904;2023-07-28T03:03:09;98968.22;;;17.49;100.00
60489;BME280;46331;49.252;8.904;2023-07-28T03:03:53;98967.53;;;17.43;100.00
60489;BME280;46331;49.252;8.904;2023-07-28T03:04:34;98968.16;;;17.40;100.00
60489;BME280;46331;49.252;8.904;2023-07-28T03:05:32;98964.88;;;17.43;100.00
60489;BME280;46331;49.252;8.904;2023-07-28T03:06:29;98969.13;;;17.44;100.00
60489;BME280;46331;49.252;8.904;2023-07-28T03:07:10;98970.81;;;17.40;100.00
60489;BME280;46331;49.252;8.904;2023-07-28T03:07:53;98974.00;;;17.42;100.00
60489;BME280;46331;49.252;8.904;2023-07-28T03:08:33;98976.78;;;17.37;100.00
60489;BME280;46331;49.252;8.904;2023-07-28T03:09:31;98979.75;;;17.36;100.00
60489;BME280;46331;49.252;8.904;2023-07-28T03:10:15;98980.88;;;17.34;100.00
60489;BME280;46331;49.252;8.904;2023-07-28T03:10:58;98989.28;;;17.42;100.00
60489;BME280;46331;49.252;8.904;2023-07-28T03:11:39;98970.22;;;17.43;100.00
60489;BME280;46331;49.252;8.904;2023-07-28T03:12:19;98969.75;;;17.41;100.00
60489;BME280;46331;49.252;8.904;2023-07-28T03:12:59;98971.34;;;17.42;100.00
60489;BME280;46331;49.252;8.904;2023-07-28T03:13:40;98973.72;;;17.44;100.00
60489;BME280;46331;49.252;8.904;2023-07-28T03:14:20;98972.41;;;17.41;100.00
60489;BME280;46331;49.252;8.904;2023-07-28T03:15:01;98973.81;;;17.39;100.00
60489;BME280;46331;49.252;8.904;2023-07-28T03:15:41;98969.25;;;17.39;100.00
60489;BME280;46331;49.252;8.904;2023-07-28T03:16:22;98973.50;;;17.40;100.00
60489;BME280;46331;49.252;8.904;2023-07-28T03:17:03;98975.88;;;17.42;100.00
60489;BME280;46331;49.252;8.904;2023-07-28T03:17:43;98978.88;;;17.40;100.00
60489;BME280;46331;49.252;8.904;2023-07-28T03:18:24;98975.69;;;17.38;100.00
60489;BME280;46331;49.252;8.904;2023-07-28T03:19:04;98976.47;;;17.39;100.00
60489;BME280;46331;49.252;8.904;2023-07-28T03:19:45;98971.53;;;17.32;100.00
60489;BME280;46331;49.252;8.904;2023-07-28T03:20:25;98974.91;;;17.38;100.00
60489;BME280;46331;49.252;8.904;2023-07-28T03:21:06;98981.06;;;17.38;100.00
60489;BME280;46331;49.252;8.904;2023-07-28T03:21:46;98970.66;;;17.37;100.00
60489;BME280;46331;49.252;8.904;2023-07-28T03:22:27;98975.69;;;17.38;100.00
60489;BME280;46331;49.252;8.904;2023-07-28T03:23:07;98980.28;;;17.38;100.00
60489;BME280;46331;49.252;8.904;2023-07-28T03:23:48;98977.59;;;17.38;100.00
60489;BME280;46331;49.252;8.904;2023-07-28T03:24:28;98980.75;;;17.40;100.00
60489;BME280;46331;49.252;8.904;2023-07-28T03:25:09;98981.53;;;17.40;100.00
60489;BME280;46331;49.252;8.904;2023-07-28T03:25:51;98979.97;;;17.39;100.00
60489;BME280;46331;49.252;8.904;2023-07-28T03:26:32;98980.28;;;17.38;100.00
60489;BME280;46331;49.252;8.904;2023-07-28T03:27:13;98978.88;;;17.40;100.00
60489;BME280;46331;49.252;8.904;2023-07-28T03:27:53;98982.66;;;17.39;100.00
60489;BME280;46331;49.252;8.904;2023-07-28T03:28:34;98977.91;;;17.36;100.00
60489;BME280;46331;49.252;8.904;2023-07-28T03:29:14;98982.97;;;17.38;100.00
60489;BME280;46331;49.252;8.904;2023-07-28T03:29:56;98973.31;;;17.37;100.00
60489;BME280;46331;49.252;8.904;2023-07-28T03:30:37;98979.16;;;17.39;100.00
60489;BME280;46331;49.252;8.904;2023-07-28T03:31:17;98974.91;;;17.38;100.00
60489;BME280;46331;49.252;8.904;2023-07-28T03:31:58;98973.13;;;17.33;100.00
60489;BME280;46331;49.252;8.904;2023-07-28T03:32:38;98978.28;;;17.29;100.00
60489;BME280;46331;49.252;8.904;2023-07-28T03:33:19;98972.75;;;17.26;100.00
60489;BME280;46331;49.252;8.904;2023-07-28T03:33:59;98970.53;;;17.28;100.00
60489;BME280;46331;49.252;8.904;2023-07-28T03:34:41;98979.09;;;17.30;100.00
60489;BME280;46331;49.252;8.904;2023-07-28T03:35:24;98972.63;;;17.31;100.00
60489;BME280;46331;49.252;8.904;2023-07-28T03:36:14;98971.06;;;17.30;100.00
60489;BME280;46331;49.252;8.904;2023-07-28T03:36:55;98987.75;;;17.27;100.00
60489;BME280;46331;49.252;8.904;2023-07-28T03:37:35;98976.22;;;17.26;100.00
60489;BME280;46331;49.252;8.904;2023-07-28T03:38:16;98981.09;;;17.24;100.00